Time;durP1;ratioP1;P1;durP2;ratioP2;P2;SDS_P1;SDS_P2;PMS_P1;PMS_P2;Temp;Humidity;BMP_temperature;BMP_pressure;BME280_temperature;BME280_humidity;BME280_pressure;Samples;Min_cycle;Max_cycle;Signal;HPM_P1;HPM_P2
2023/01/15 00:01:28;;;;;;;0.70;0.70;;;7.60;99.90;7.40;99051.00;;;;4975674;28;89002;-68
2023/01/15 00:03:57;;;;;;;0.60;0.57;;;7.60;99.90;7.50;99052.00;;;;4972146;28;88061;-68
2023/01/15 00:06:25;;;;;;;0.83;0.73;;;7.60;99.90;7.50;99038.00;;;;4972551;28;90010;-68
2023/01/15 00:08:53;;;;;;;1.27;0.90;;;8.10;99.90;7.50;99035.00;;;;4973753;28;88125;-67
2023/01/15 00:11:20;;;;;;;0.83;0.77;;;7.60;99.90;7.50;99027.00;;;;4974932;28;87841;-68
2023/01/15 00:13:46;;;;;;;0.67;0.67;;;7.70;99.90;7.60;99020.00;;;;4974625;28;87962;-68
2023/01/15 00:16:21;;;;;;;2.67;1.17;;;7.60;99.90;7.60;99017.00;;;;4975889;28;88639;-67
2023/01/15 00:18:51;;;;;;;1.80;1.07;;;7.70;99.90;7.60;99017.00;;;;4973838;28;88219;-67
2023/01/15 00:21:17;;;;;;;0.77;0.77;;;7.70;99.90;7.60;99023.00;;;;4976739;28;96329;-67
2023/01/15 00:29:16;;;;;;;0.50;0.47;;;7.80;99.90;7.70;99004.00;;;;4975513;28;87876;-68
2023/01/15 00:31:43;;;;;;;1.33;0.70;;;7.80;99.90;7.70;99015.00;;;;4972251;28;104192;-67
2023/01/15 00:34:09;;;;;;;1.10;0.70;;;7.80;99.90;7.70;99017.00;;;;4973720;28;87743;-67
2023/01/15 00:36:36;;;;;;;1.03;0.83;;;7.80;99.90;7.70;99014.00;;;;4974713;28;93443;-67
2023/01/15 00:39:03;;;;;;;0.93;0.70;;;8.30;99.90;7.80;99010.00;;;;4972244;28;88819;-68
2023/01/15 00:41:29;;;;;;;0.50;0.50;;;7.90;99.90;7.80;99006.00;;;;4972262;28;87807;-68
2023/01/15 00:43:55;;;;;;;0.63;0.63;;;7.90;99.90;7.80;98979.00;;;;4975380;28;107385;-67
2023/01/15 00:46:21;;;;;;;1.53;0.67;;;7.90;99.90;7.90;98979.00;;;;4972886;28;88747;-67
2023/01/15 00:48:47;;;;;;;0.43;0.30;;;7.90;99.90;7.90;98980.00;;;;4973598;28;108049;-68
2023/01/15 00:51:12;;;;;;;0.60;0.60;;;8.00;99.90;7.90;98971.00;;;;4976114;28;87901;-68
2023/01/15 00:53:38;;;;;;;0.50;0.50;;;8.00;99.90;7.90;98970.00;;;;4969437;27;110525;-68
2023/01/15 00:56:04;;;;;;;0.20;0.20;;;8.00;99.90;7.90;98971.00;;;;4975867;28;117450;-68
2023/01/15 00:58:30;;;;;;;0.30;0.30;;;8.10;99.90;7.90;98962.00;;;;4973420;28;100929;-67
2023/01/15 01:00:58;;;;;;;0.93;0.67;;;8.10;99.90;8.00;98955.00;;;;4973657;28;108365;-67
2023/01/15 01:03:23;;;;;;;0.50;0.40;;;8.10;99.90;8.00;98952.00;;;;4973314;28;87797;-67
2023/01/15 01:05:50;;;;;;;1.13;0.60;;;8.10;99.90;8.00;98951.00;;;;4965979;28;117305;-67
2023/01/15 01:08:16;;;;;;;1.10;0.70;;;8.10;99.90;8.00;98951.00;;;;4969767;28;116433;-66
2023/01/15 01:10:42;;;;;;;0.50;0.50;;;8.10;99.90;8.00;98927.00;;;;4968629;28;88253;-66
2023/01/15 01:13:08;;;;;;;0.80;0.37;;;8.10;99.90;8.10;98943.00;;;;4972141;28;87385;-66
2023/01/15 01:15:36;;;;;;;0.80;0.80;;;8.20;99.90;8.10;98936.00;;;;4972841;28;89178;-68
2023/01/15 01:18:03;;;;;;;1.03;0.40;;;8.20;99.90;8.10;98937.00;;;;4958246;28;89599;-66
2023/01/15 01:20:29;;;;;;;1.87;1.00;;;8.10;99.90;8.10;98929.00;;;;4974037;28;88843;-66
2023/01/15 01:22:55;;;;;;;0.50;0.50;;;8.20;99.90;8.10;98929.00;;;;4972190;28;87930;-67
2023/01/15 01:25:21;;;;;;;0.40;0.40;;;8.30;99.90;8.10;98926.00;;;;4972394;28;98042;-67
2023/01/15 01:27:48;;;;;;;0.33;0.23;;;8.20;99.90;8.10;98921.00;;;;4969962;28;91183;-66
2023/01/15 01:30:14;;;;;;;0.40;0.30;;;8.30;99.90;8.10;98908.00;;;;4971665;28;88265;-66
2023/01/15 01:32:43;;;;;;;0.57;0.40;;;8.30;99.90;8.20;98922.00;;;;4980389;28;87652;-67
2023/01/15 01:35:09;;;;;;;0.17;0.17;;;8.20;99.90;8.20;98913.00;;;;4973977;28;88989;-67
2023/01/15 01:37:35;;;;;;;0.97;0.53;;;8.30;99.90;8.20;98891.00;;;;4973527;28;105244;-67
2023/01/15 01:40:01;;;;;;;0.40;0.30;;;8.30;99.90;8.20;98899.00;;;;4973204;28;110285;-66
2023/01/15 01:42:27;;;;;;;0.20;0.20;;;8.40;99.90;8.30;98896.00;;;;4971241;28;109258;-66
2023/01/15 01:45:27;;;;;;;0.20;0.20;;;8.40;99.90;8.30;98897.00;;;;4970071;28;119429;-66
2023/01/15 01:47:58;;;;;;;0.33;0.30;;;8.40;99.90;8.30;98895.00;;;;4975291;28;88756;-67
2023/01/15 01:50:25;;;;;;;0.73;0.43;;;8.50;99.90;8.40;98904.00;;;;4974648;28;103011;-66
2023/01/15 01:52:55;;;;;;;3.90;0.50;;;8.50;99.90;8.40;98886.00;;;;4974495;28;99088;-67
2023/01/15 01:55:24;;;;;;;0.40;0.30;;;8.50;99.90;8.40;98895.00;;;;4968703;28;110535;-66
2023/01/15 01:57:54;;;;;;;0.27;0.27;;;8.60;99.90;8.50;98893.00;;;;4985566;27;88049;-65
2023/01/15 02:00:22;;;;;;;0.77;0.37;;;8.60;99.90;8.50;98879.00;;;;4970232;28;88053;-65
2023/01/15 02:02:50;;;;;;;0.10;0.10;;;8.60;99.90;8.50;98880.00;;;;4970367;28;87225;-65
2023/01/15 02:05:29;;;;;;;1.80;0.40;;;8.60;99.90;8.50;98878.00;;;;4968321;28;88424;-67
2023/01/15 02:07:55;;;;;;;0.20;0.17;;;8.60;99.90;8.50;98864.00;;;;4968037;28;88396;-67
2023/01/15 02:10:20;;;;;;;0.10;0.10;;;8.60;99.90;8.60;98873.00;;;;4966327;28;92775;-68
2023/01/15 02:13:03;;;;;;;0.77;0.30;;;8.70;99.90;8.60;98879.00;;;;4969173;28;108472;-67
2023/01/15 02:15:39;;;;;;;0.47;0.33;;;8.70;99.90;8.60;98873.00;;;;4965887;28;88140;-66
2023/01/15 02:18:23;;;;;;;0.00;0.00;;;8.70;99.90;8.60;98878.00;;;;4972034;28;97851;-68
2023/01/15 02:21:11;;;;;;;0.30;0.20;;;8.80;99.90;8.70;98880.00;;;;4972264;28;87943;-67
2023/01/15 02:24:15;;;;;;;1.17;0.10;;;8.80;99.90;8.80;98866.00;;;;4972933;28;102188;-67
2023/01/15 02:27:05;;;;;;;0.67;0.17;;;8.90;99.90;8.90;98866.00;;;;4963440;28;99093;-67
2023/01/15 02:29:57;;;;;;;0.47;0.27;;;9.00;99.90;9.00;98870.00;;;;4979300;27;109830;-68
2023/01/15 02:32:33;;;;;;;0.40;0.40;;;9.10;99.90;9.10;98869.00;;;;4971954;28;95643;-69
2023/01/15 02:35:13;;;;;;;0.43;0.37;;;9.20;99.90;9.20;98857.00;;;;4971676;28;88027;-68
2023/01/15 02:37:46;;;;;;;0.50;0.20;;;9.20;99.90;9.20;98863.00;;;;4974108;28;108955;-68
2023/01/15 02:40:13;;;;;;;0.10;0.10;;;9.30;99.90;9.30;98850.00;;;;4974997;28;112805;-68
2023/01/15 02:42:41;;;;;;;0.00;0.00;;;9.40;99.90;9.40;98842.00;;;;4972691;28;87842;-67
2023/01/15 02:45:09;;;;;;;0.17;0.17;;;9.40;99.90;9.50;98847.00;;;;4972336;28;100607;-67
2023/01/15 02:47:39;;;;;;;0.20;0.10;;;9.60;99.90;9.70;98846.00;;;;4970508;28;118686;-69
2023/01/15 02:50:13;;;;;;;0.17;0.17;;;9.70;99.90;9.70;98836.00;;;;4973619;28;88668;-68
2023/01/15 02:52:45;;;;;;;1.03;0.20;;;9.80;99.90;9.80;98833.00;;;;4976421;28;87991;-70
2023/01/15 02:55:21;;;;;;;0.10;0.10;;;9.90;99.90;9.90;98831.00;;;;4975562;28;87040;-69
2023/01/15 02:57:50;;;;;;;0.10;0.10;;;10.00;99.90;10.00;98825.00;;;;4972416;28;98572;-67
2023/01/15 03:00:18;;;;;;;0.00;0.00;;;10.00;99.90;10.10;98830.00;;;;4975481;28;88374;-68
2023/01/15 03:03:18;;;;;;;0.00;0.00;;;9.80;99.90;10.00;98813.00;;;;4974480;28;88991;-68
2023/01/15 03:06:04;;;;;;;0.00;0.00;;;10.10;99.90;10.00;98822.00;;;;4917599;28;87754;-70
2023/01/15 03:08:30;;;;;;;0.10;0.10;;;10.10;99.90;10.00;98829.00;;;;4987098;27;88054;-69
2023/01/15 03:11:17;;;;;;;0.10;0.10;;;10.10;99.90;10.00;98826.00;;;;4991242;27;117226;-70
2023/01/15 03:13:51;;;;;;;0.00;0.00;;;10.10;99.90;9.90;98817.00;;;;4974189;28;87597;-70
2023/01/15 03:16:36;;;;;;;0.00;0.00;;;10.10;99.90;9.80;98814.00;;;;4974925;28;88230;-70
2023/01/15 03:19:21;;;;;;;0.27;0.27;;;10.00;99.90;9.80;98814.00;;;;4970619;28;89477;-73
2023/01/15 03:22:12;;;;;;;0.60;0.10;;;9.90;99.90;9.70;98797.00;;;;4982712;27;89627;-69
2023/01/15 03:25:03;;;;;;;0.10;0.10;;;9.80;99.90;9.70;98794.00;;;;4968823;28;87914;-69
2023/01/15 03:27:28;;;;;;;0.00;0.00;;;9.80;99.90;9.70;98785.00;;;;4971454;28;88375;-67
2023/01/15 03:30:04;;;;;;;0.60;0.10;;;9.80;99.90;9.70;98783.00;;;;4970037;28;119394;-68
2023/01/15 03:32:30;;;;;;;0.10;0.10;;;9.80;99.90;9.60;98795.00;;;;4982062;27;88718;-66
2023/01/15 03:34:57;;;;;;;1.40;0.23;;;9.70;99.90;9.60;98785.00;;;;4972598;28;87802;-68
2023/01/15 03:37:26;;;;;;;0.07;0.07;;;9.70;99.90;9.60;98778.00;;;;4970435;28;87860;-69
2023/01/15 03:39:52;;;;;;;0.13;0.10;;;9.70;99.90;9.60;98775.00;;;;4969077;28;88059;-70
2023/01/15 03:42:40;;;;;;;0.10;0.10;;;9.70;99.90;9.60;98768.00;;;;4967378;28;108291;-70
2023/01/15 03:45:19;;;;;;;0.10;0.10;;;9.70;99.90;9.60;98771.00;;;;4984435;27;102270;-70
2023/01/15 03:47:56;;;;;;;0.10;0.10;;;9.70;99.90;9.60;98765.00;;;;4972580;28;87308;-70
2023/01/15 03:50:33;;;;;;;0.00;0.00;;;9.70;99.90;9.60;98765.00;;;;4971588;28;109303;-70
2023/01/15 03:53:22;;;;;;;0.10;0.10;;;9.70;99.90;9.60;98772.00;;;;4972425;28;95722;-69
2023/01/15 03:56:02;;;;;;;0.17;0.17;;;9.70;99.90;9.60;98765.00;;;;4986627;27;90215;-70
2023/01/15 03:58:52;;;;;;;0.13;0.10;;;9.70;99.90;9.50;98777.00;;;;4969704;28;87818;-68
2023/01/15 04:01:30;;;;;;;0.00;0.00;;;9.60;99.90;9.50;98771.00;;;;4969997;28;106513;-68
2023/01/15 04:03:58;;;;;;;0.97;0.17;;;9.60;99.90;9.50;98782.00;;;;4980793;27;88149;-67
2023/01/15 04:06:28;;;;;;;0.10;0.10;;;9.60;99.90;9.50;98776.00;;;;4972027;28;96774;-68
2023/01/15 04:08:55;;;;;;;0.40;0.20;;;9.60;99.90;9.50;98777.00;;;;4970897;28;88403;-69
2023/01/15 04:11:24;;;;;;;0.70;0.30;;;9.60;99.90;9.50;98782.00;;;;4969935;28;118146;-69
2023/01/15 04:13:50;;;;;;;0.07;0.07;;;9.50;99.90;9.40;98781.00;;;;4974521;28;87632;-69
2023/01/15 04:16:24;;;;;;;0.00;0.00;;;9.50;99.90;9.40;98771.00;;;;4967413;28;89507;-68
2023/01/15 04:18:51;;;;;;;0.10;0.10;;;9.50;99.90;9.40;98780.00;;;;4971432;28;87912;-69
2023/01/15 04:21:16;;;;;;;0.00;0.00;;;9.50;99.90;9.40;98768.00;;;;4973094;28;89398;-70
2023/01/15 04:23:42;;;;;;;0.23;0.23;;;9.50;99.90;9.40;98766.00;;;;4970612;28;116769;-67
2023/01/15 04:26:08;;;;;;;0.23;0.20;;;9.40;99.90;9.40;98767.00;;;;4971532;28;110244;-67
2023/01/15 04:28:33;;;;;;;0.10;0.10;;;9.50;99.90;9.40;98757.00;;;;4976717;28;88100;-68
2023/01/15 04:30:59;;;;;;;0.10;0.10;;;9.40;99.90;9.40;98757.00;;;;4971225;28;116845;-66
2023/01/15 04:33:25;;;;;;;0.00;0.00;;;9.40;99.90;9.40;98754.00;;;;4972961;28;117769;-69
2023/01/15 04:35:51;;;;;;;0.10;0.10;;;9.40;99.90;9.40;98762.00;;;;4976772;28;111254;-66
2023/01/15 04:38:17;;;;;;;0.30;0.23;;;9.40;99.90;9.40;98746.00;;;;4976216;28;108294;-67
2023/01/15 04:46:12;;;;;;;0.20;0.20;;;9.50;99.90;9.30;98740.00;;;;4974940;28;88741;-69
2023/01/15 04:48:39;;;;;;;0.10;0.03;;;9.50;99.90;9.30;98737.00;;;;4975152;28;108082;-70
2023/01/15 04:51:06;;;;;;;0.10;0.10;;;9.40;99.90;9.30;98730.00;;;;4974332;28;89156;-69
2023/01/15 04:53:32;;;;;;;0.20;0.10;;;9.50;99.90;9.40;98726.00;;;;4978452;28;87998;-68
2023/01/15 04:56:03;;;;;;;0.23;0.10;;;9.50;99.90;9.40;98717.00;;;;4972845;28;88080;-69
2023/01/15 04:58:29;;;;;;;0.27;0.27;;;9.40;99.90;9.30;98713.00;;;;4977710;28;88122;-68
2023/01/15 05:00:56;;;;;;;0.20;0.10;;;9.40;99.90;9.40;98714.00;;;;4972319;28;110022;-68
2023/01/15 05:03:22;;;;;;;0.10;0.10;;;9.40;99.90;9.40;98705.00;;;;4979600;28;87283;-67
2023/01/15 05:05:49;;;;;;;0.10;0.10;;;9.40;99.90;9.40;98706.00;;;;4979419;28;109318;-68
2023/01/15 05:08:15;;;;;;;0.30;0.00;;;9.40;99.90;9.40;98705.00;;;;4974912;28;87705;-67
2023/01/15 05:10:40;;;;;;;0.10;0.10;;;9.40;99.90;9.40;98696.00;;;;4972637;28;110308;-66
2023/01/15 05:13:06;;;;;;;0.17;0.10;;;9.40;99.90;9.40;98696.00;;;;4974590;28;118595;-67
2023/01/15 05:15:32;;;;;;;0.27;0.20;;;9.50;99.90;9.40;98701.00;;;;4974729;28;110073;-67
2023/01/15 05:17:57;;;;;;;0.13;0.13;;;9.40;99.90;9.40;98707.00;;;;4973643;28;87642;-66
2023/01/15 05:20:23;;;;;;;0.10;0.10;;;9.50;99.90;9.40;98694.00;;;;4973454;28;116610;-67
2023/01/15 05:22:49;;;;;;;0.43;0.30;;;9.50;99.90;9.40;98698.00;;;;4971947;28;88050;-68
2023/01/15 05:25:14;;;;;;;0.63;0.20;;;9.20;99.90;9.40;98698.00;;;;4971824;28;109753;-66
2023/01/15 05:27:41;;;;;;;0.30;0.10;;;9.50;99.90;9.50;98693.00;;;;4973513;28;108871;-67
2023/01/15 05:30:09;;;;;;;0.70;0.10;;;9.50;99.90;9.50;98689.00;;;;4970509;28;87821;-66
2023/01/15 05:32:34;;;;;;;0.20;0.10;;;9.50;99.90;9.50;98690.00;;;;4974048;28;102231;-66
2023/01/15 05:35:00;;;;;;;0.77;0.20;;;9.50;99.90;9.50;98688.00;;;;4974271;28;108292;-66
2023/01/15 05:37:28;;;;;;;0.10;0.10;;;9.60;99.90;9.50;98691.00;;;;4968883;28;110315;-67
2023/01/15 05:39:54;;;;;;;0.37;0.10;;;9.60;99.90;9.50;98695.00;;;;4971605;28;110733;-66
2023/01/15 05:42:20;;;;;;;0.10;0.10;;;9.60;99.90;9.50;98691.00;;;;4972925;28;117327;-67
2023/01/15 05:44:45;;;;;;;0.10;0.10;;;9.60;99.90;9.60;98685.00;;;;4971638;28;110070;-67
2023/01/15 05:47:11;;;;;;;0.43;0.17;;;9.60;99.90;9.60;98690.00;;;;4968872;28;87864;-67
2023/01/15 05:49:37;;;;;;;0.20;0.20;;;9.60;99.90;9.60;98684.00;;;;4972956;28;88656;-66
2023/01/15 05:52:03;;;;;;;0.50;0.10;;;9.60;99.90;9.60;98680.00;;;;4973890;28;117223;-66
2023/01/15 05:54:34;;;;;;;0.10;0.10;;;9.60;99.90;9.60;98698.00;;;;4976583;28;87790;-67
2023/01/15 05:57:00;;;;;;;0.33;0.20;;;9.60;99.90;9.60;98691.00;;;;4972870;28;87941;-67
2023/01/15 05:59:28;;;;;;;0.10;0.03;;;9.70;99.90;9.60;98684.00;;;;4972670;28;90253;-66
2023/01/15 06:01:54;;;;;;;0.10;0.10;;;9.70;99.90;9.60;98691.00;;;;4974345;28;88682;-66
2023/01/15 06:04:20;;;;;;;0.33;0.30;;;9.70;99.90;9.60;98693.00;;;;4971372;28;87855;-67
2023/01/15 06:06:49;;;;;;;0.20;0.20;;;9.70;99.90;9.70;98686.00;;;;4973369;28;87711;-66
2023/01/15 06:09:15;;;;;;;0.10;0.10;;;9.70;99.90;9.70;98683.00;;;;4962704;27;89955;-66
2023/01/15 06:11:40;;;;;;;0.30;0.10;;;9.80;99.90;9.70;98737.00;;;;4971481;28;116175;-67
2023/01/15 06:14:07;;;;;;;0.20;0.20;;;9.70;99.90;9.70;98763.00;;;;4970573;28;109634;-70
2023/01/15 06:16:33;;;;;;;0.10;0.10;;;9.70;99.90;9.60;98782.00;;;;4975745;28;109022;-69
2023/01/15 06:19:03;;;;;;;0.87;0.20;;;9.70;99.90;9.40;98780.00;;;;4972594;28;88697;-68
2023/01/15 06:21:30;;;;;;;0.00;0.00;;;9.60;99.90;9.10;98796.00;;;;4971039;28;88601;-68
2023/01/15 06:23:56;;;;;;;0.30;0.10;;;9.30;99.90;8.70;98804.00;;;;4970246;28;90148;-67
2023/01/15 06:26:22;;;;;;;0.00;0.00;;;9.00;99.90;8.40;98792.00;;;;4965304;28;108352;-69
2023/01/15 06:28:48;;;;;;;0.00;0.00;;;8.70;99.90;8.10;98798.00;;;;4953562;28;90506;-68
2023/01/15 06:31:17;;;;;;;0.07;0.07;;;8.40;99.90;7.90;98814.00;;;;4971679;28;117422;-69
2023/01/15 06:33:44;;;;;;;0.30;0.10;;;8.20;99.90;7.70;98842.00;;;;4971788;28;87862;-66
2023/01/15 06:36:16;;;;;;;0.40;0.10;;;7.90;99.90;7.50;98854.00;;;;4970293;28;88186;-68
2023/01/15 06:38:43;;;;;;;0.10;0.10;;;7.70;99.90;7.30;98868.00;;;;4972426;28;89345;-67
2023/01/15 06:49:33;;;;;;;0.10;0.10;;;7.10;99.90;6.70;98902.00;;;;4970676;28;89165;-68
2023/01/15 06:52:00;;;;;;;0.00;0.00;;;6.90;99.90;6.60;98920.00;;;;4983934;27;88166;-68
2023/01/15 06:54:26;;;;;;;0.10;0.10;;;6.80;99.90;6.50;98922.00;;;;4972977;28;100071;-70
2023/01/15 06:56:51;;;;;;;0.03;0.03;;;7.40;99.90;6.40;98920.00;;;;4971544;28;88140;-68
2023/01/15 06:59:18;;;;;;;0.10;0.10;;;6.60;99.90;6.40;98926.00;;;;4967152;28;117524;-67
2023/01/15 07:01:44;;;;;;;0.30;0.30;;;6.60;99.90;6.30;98931.00;;;;4971066;28;99671;-68
2023/01/15 07:04:10;;;;;;;0.70;0.27;;;7.10;99.90;6.20;98931.00;;;;4969244;28;87711;-69
2023/01/15 07:06:35;;;;;;;0.30;0.23;;;6.40;99.90;6.20;98930.00;;;;4969865;28;87057;-67
2023/01/15 07:09:01;;;;;;;1.70;0.87;;;6.30;99.90;6.10;98940.00;;;;4967044;28;97168;-66
2023/01/15 07:11:27;;;;;;;2.13;0.70;;;6.30;99.90;6.10;98944.00;;;;4971727;28;105799;-67
2023/01/15 07:14:04;;;;;;;0.10;0.10;;;7.00;99.90;6.10;98938.00;;;;4971501;28;110349;-68
2023/01/15 07:16:36;;;;;;;0.40;0.30;;;6.30;99.90;6.00;98944.00;;;;4970080;28;88143;-67
2023/01/15 07:19:03;;;;;;;5.73;2.27;;;6.50;99.90;6.00;98949.00;;;;4966928;28;118660;-67
2023/01/15 07:21:29;;;;;;;7.70;2.33;;;6.20;99.90;6.00;98937.00;;;;4967850;28;87795;-68
2023/01/15 07:23:58;;;;;;;1.70;1.30;;;6.40;99.90;6.10;98941.00;;;;4954027;28;87981;-68
2023/01/15 07:26:25;;;;;;;5.23;1.60;;;6.30;99.90;6.10;98950.00;;;;4954319;28;87738;-68
2023/01/15 07:28:51;;;;;;;1.40;1.03;;;6.30;99.90;6.10;98948.00;;;;4967038;28;88925;-68
2023/01/15 07:31:17;;;;;;;0.57;0.57;;;6.20;99.90;6.10;98960.00;;;;4964301;28;118179;-68
2023/01/15 07:33:42;;;;;;;1.77;1.67;;;6.70;99.90;6.10;98965.00;;;;4958644;28;109492;-68
2023/01/15 07:36:08;;;;;;;1.53;1.13;;;6.80;99.90;6.10;98963.00;;;;4964302;28;93298;-68
2023/01/15 07:38:34;;;;;;;0.30;0.30;;;6.10;99.90;6.10;98971.00;;;;4962778;28;115036;-68
2023/01/15 07:52:00;;;;;;;1.90;0.50;;;7.00;99.90;6.00;99000.00;;;;4957548;27;87817;-69
2023/01/15 07:54:26;;;;;;;2.73;0.97;;;6.70;99.90;6.00;99012.00;;;;4964617;28;109957;-68
2023/01/15 07:56:52;;;;;;;2.33;1.50;;;6.10;99.90;6.00;99028.00;;;;4967417;28;87120;-69
2023/01/15 07:59:19;;;;;;;0.50;0.40;;;6.20;99.90;6.00;99023.00;;;;4961809;28;116403;-68
2023/01/15 08:01:44;;;;;;;0.77;0.70;;;6.20;99.90;6.10;99025.00;;;;4953824;27;117383;-69
2023/01/15 08:04:10;;;;;;;0.20;0.20;;;6.90;99.90;6.00;99030.00;;;;4976047;27;101218;-69
2023/01/15 08:06:36;;;;;;;0.60;0.43;;;6.20;99.90;5.90;99031.00;;;;4988284;27;108231;-70
2023/01/15 08:09:02;;;;;;;0.20;0.20;;;6.10;99.90;5.90;99047.00;;;;4987728;27;116973;-72
2023/01/15 08:16:58;;;;;;;0.73;0.43;;;6.50;99.90;5.70;99053.00;;;;4966387;27;88389;-70
2023/01/15 08:19:28;;;;;;;1.43;0.40;;;6.60;99.90;5.70;99056.00;;;;4966226;28;107957;-69
2023/01/15 08:21:55;;;;;;;0.37;0.37;;;5.80;99.90;5.70;99057.00;;;;4968684;28;87217;-69
2023/01/15 08:24:22;;;;;;;0.20;0.20;;;5.80;99.90;5.60;99064.00;;;;4964534;28;88080;-68
2023/01/15 08:26:48;;;;;;;0.20;0.20;;;5.80;99.90;5.60;99076.00;;;;4964550;27;103994;-69
2023/01/15 08:29:14;;;;;;;2.03;0.50;;;5.80;99.90;5.60;99077.00;;;;4967359;28;98488;-69
2023/01/15 08:31:40;;;;;;;0.60;0.20;;;6.30;99.90;5.50;99079.00;;;;4963904;28;117185;-70
2023/01/15 08:34:07;;;;;;;0.30;0.10;;;6.30;99.90;5.50;99077.00;;;;4973091;28;87788;-69
2023/01/15 08:36:33;;;;;;;0.10;0.10;;;5.60;99.90;5.40;99076.00;;;;4967126;28;87818;-68
2023/01/15 08:38:58;;;;;;;0.20;0.20;;;5.60;99.90;5.40;99071.00;;;;4969116;28;99104;-69
2023/01/15 08:41:24;;;;;;;0.20;0.20;;;5.60;99.90;5.40;99075.00;;;;4968302;28;116075;-68
2023/01/15 08:43:50;;;;;;;0.30;0.20;;;5.60;99.90;5.40;99075.00;;;;4964418;28;117006;-69
2023/01/15 08:46:16;;;;;;;0.47;0.40;;;5.60;99.90;5.40;99070.00;;;;4962803;28;110869;-68
2023/01/15 08:48:41;;;;;;;0.23;0.23;;;5.70;99.90;5.40;99069.00;;;;4953336;28;88035;-67
2023/01/15 08:51:09;;;;;;;2.00;0.70;;;5.50;99.90;5.30;99077.00;;;;4965654;28;118169;-67
2023/01/15 08:53:36;;;;;;;0.50;0.50;;;5.50;99.90;5.30;99080.00;;;;4966324;28;88690;-67
2023/01/15 08:56:01;;;;;;;0.60;0.60;;;5.50;99.90;5.30;99084.00;;;;4966107;28;87596;-68
2023/01/15 08:58:29;;;;;;;0.30;0.30;;;5.50;99.90;5.30;99073.00;;;;4965659;28;87895;-67
2023/01/15 09:00:55;;;;;;;0.50;0.33;;;5.90;99.90;5.30;99058.00;;;;4966596;28;88874;-67
2023/01/15 09:03:21;;;;;;;0.77;0.70;;;5.50;99.90;5.30;99056.00;;;;4965740;28;97660;-68
2023/01/15 09:05:47;;;;;;;0.43;0.37;;;6.20;99.90;5.30;99058.00;;;;4968195;28;109119;-69
2023/01/15 09:08:13;;;;;;;0.47;0.43;;;6.20;99.90;5.30;99055.00;;;;4965826;28;87849;-70
2023/01/15 09:10:38;;;;;;;0.47;0.30;;;5.50;99.90;5.30;99066.00;;;;4965466;28;116881;-68
2023/01/15 09:13:04;;;;;;;0.10;0.10;;;5.50;99.90;5.20;99062.00;;;;4962290;28;115968;-70
2023/01/15 09:15:32;;;;;;;0.10;0.10;;;5.40;99.90;5.20;99071.00;;;;4967768;28;110710;-68
2023/01/15 09:17:58;;;;;;;0.87;0.30;;;6.00;99.90;5.20;99080.00;;;;4966986;28;100984;-68
2023/01/15 09:20:24;;;;;;;0.50;0.40;;;6.10;99.90;5.10;99079.00;;;;4967100;28;89109;-69
2023/01/15 09:22:50;;;;;;;0.30;0.30;;;5.20;99.90;5.20;99088.00;;;;4969608;28;88545;-69
2023/01/15 09:25:18;;;;;;;0.10;0.10;;;5.30;99.90;5.10;99077.00;;;;4969195;28;87745;-70
2023/01/15 09:27:44;;;;;;;0.30;0.30;;;5.80;99.90;5.10;99065.00;;;;4969980;28;87877;-69
2023/01/15 09:30:16;;;;;;;0.10;0.10;;;6.00;99.90;5.10;99065.00;;;;4967384;28;89795;-69
2023/01/15 09:32:42;;;;;;;1.13;0.57;;;5.20;99.90;5.10;99051.00;;;;4970292;28;87957;-69
2023/01/15 09:35:08;;;;;;;0.40;0.40;;;5.20;99.90;5.10;99037.00;;;;4971064;28;105517;-69
2023/01/15 09:37:34;;;;;;;0.57;0.20;;;5.20;99.90;5.00;99037.00;;;;4969039;28;100492;-69
2023/01/15 09:40:01;;;;;;;0.30;0.20;;;5.10;99.90;5.00;99051.00;;;;4966924;28;117081;-67
2023/01/15 09:42:51;;;;;;;0.70;0.53;;;5.70;99.90;5.00;99065.00;;;;4965437;28;88985;-68
2023/01/15 09:45:48;;;;;;;0.17;0.10;;;5.10;99.90;5.00;99058.00;;;;4970547;28;88187;-68
2023/01/15 09:48:27;;;;;;;0.30;0.30;;;5.20;99.90;5.10;99058.00;;;;4968664;28;100720;-68
2023/01/15 09:51:25;;;;;;;0.70;0.53;;;5.10;99.90;5.10;99048.00;;;;4966663;28;87574;-68
2023/01/15 09:54:07;;;;;;;0.30;0.20;;;5.20;99.90;5.10;99049.00;;;;4967729;28;106457;-68
2023/01/15 09:56:35;;;;;;;0.10;0.10;;;5.30;99.90;5.10;99038.00;;;;4966323;28;87877;-68
2023/01/15 09:59:17;;;;;;;0.30;0.30;;;5.20;99.90;5.10;99055.00;;;;4966338;28;87866;-69
2023/01/15 10:01:43;;;;;;;1.93;0.40;;;5.90;99.90;5.20;99068.00;;;;4961710;28;87403;-67
2023/01/15 10:04:33;;;;;;;1.77;1.33;;;5.30;99.90;5.20;99068.00;;;;4970857;28;88034;-68
2023/01/15 10:07:58;;;;;;;2.43;1.50;;;5.30;99.90;5.20;99055.00;;;;4966079;28;89398;-67
2023/01/15 10:10:32;;;;;;;0.63;0.50;;;5.30;99.90;5.20;99051.00;;;;4907018;28;88976;-70
2023/01/15 10:13:10;;;;;;;0.40;0.20;;;5.30;99.90;5.20;99042.00;;;;4893207;28;89150;-67
2023/01/15 10:15:42;;;;;;;0.30;0.30;;;5.30;99.90;5.30;99052.00;;;;4942257;28;93622;-67
2023/01/15 10:18:15;;;;;;;0.20;0.20;;;6.20;99.90;5.30;99051.00;;;;4967356;28;102990;-67
2023/01/15 10:21:31;;;;;;;0.30;0.30;;;5.50;99.90;5.30;99035.00;;;;4965674;28;87878;-67
2023/01/15 10:24:17;;;;;;;0.20;0.20;;;5.40;99.90;5.30;99037.00;;;;4965652;28;87689;-68
2023/01/15 10:26:55;;;;;;;0.33;0.20;;;5.40;99.90;5.30;99047.00;;;;4981929;27;88059;-67
2023/01/15 10:29:43;;;;;;;0.67;0.33;;;5.50;99.90;5.40;99050.00;;;;4967004;28;87249;-67
2023/01/15 10:32:17;;;;;;;0.67;0.60;;;5.10;99.90;5.40;99051.00;;;;4975430;27;91687;-67
2023/01/15 10:35:23;;;;;;;0.30;0.30;;;5.60;99.90;5.50;99030.00;;;;4964325;28;87659;-67
2023/01/15 10:38:06;;;;;;;0.63;0.40;;;5.70;99.90;5.50;99035.00;;;;4964839;28;88697;-67
2023/01/15 10:40:47;;;;;;;0.10;0.10;;;5.60;99.90;5.60;99044.00;;;;4965229;28;95385;-67
2023/01/15 10:43:58;;;;;;;0.40;0.30;;;5.70;99.90;5.60;99052.00;;;;4960451;28;87830;-68
2023/01/15 10:46:36;;;;;;;0.60;0.50;;;5.80;99.90;5.70;99063.00;;;;4964786;28;88277;-69
2023/01/15 10:49:15;;;;;;;0.53;0.40;;;5.90;99.90;5.70;99056.00;;;;4962030;28;87807;-68
2023/01/15 10:51:50;;;;;;;0.20;0.20;;;5.80;99.90;5.80;99065.00;;;;4964741;28;88015;-69
2023/01/15 10:54:27;;;;;;;0.10;0.10;;;5.80;99.90;5.80;99073.00;;;;4968463;28;88209;-69
2023/01/15 10:57:10;;;;;;;0.30;0.30;;;5.90;99.90;5.80;99083.00;;;;4967052;28;109577;-69
2023/01/15 10:59:51;;;;;;;0.63;0.37;;;6.00;99.90;5.90;99066.00;;;;4963487;28;87905;-66
2023/01/15 11:02:28;;;;;;;0.37;0.37;;;6.00;99.90;5.90;99074.00;;;;4963305;28;96035;-69
2023/01/15 11:04:54;;;;;;;0.10;0.10;;;6.10;99.90;5.90;99089.00;;;;4965668;28;93051;-67
2023/01/15 11:07:35;;;;;;;0.27;0.27;;;6.10;99.90;6.00;99094.00;;;;4962405;28;118609;-67
2023/01/15 11:10:09;;;;;;;0.83;0.30;;;6.10;99.90;6.00;99090.00;;;;4965672;28;88307;-66
2023/01/15 11:21:00;;;;;;;0.73;0.73;;;6.20;99.90;6.10;99086.00;;;;4966340;28;88793;-66
2023/01/15 11:23:25;;;;;;;2.70;1.57;;;6.20;99.90;6.10;99087.00;;;;4962069;28;87568;-66
2023/01/15 11:25:54;;;;;;;7.63;2.70;;;6.30;99.90;6.20;99079.00;;;;4964150;27;108113;-65
2023/01/15 11:28:45;;;;;;;3.70;2.03;;;6.30;99.90;6.20;99077.00;;;;4959344;28;98694;-65
2023/01/15 11:31:12;;;;;;;2.03;1.30;;;6.60;99.90;6.20;99075.00;;;;4981295;27;88832;-66
2023/01/15 11:33:39;;;;;;;0.27;0.27;;;6.30;99.90;6.20;99092.00;;;;4965164;28;89172;-67
2023/01/15 11:36:22;;;;;;;0.40;0.40;;;6.40;99.90;6.20;99092.00;;;;4968028;28;87934;-65
2023/01/15 11:38:49;;;;;;;0.47;0.40;;;6.40;99.90;6.30;99085.00;;;;4967843;28;87889;-65
2023/01/15 11:52:53;;;;;;;0.67;0.20;;;6.50;99.90;6.40;99079.00;;;;4970635;28;87840;-65
2023/01/15 11:55:24;;;;;;;0.77;0.43;;;6.70;99.90;6.40;99072.00;;;;4967147;28;87871;-66
2023/01/15 11:57:51;;;;;;;3.83;0.47;;;6.60;99.90;6.40;99081.00;;;;4967420;28;99259;-69
2023/01/15 12:00:23;;;;;;;0.73;0.30;;;6.60;99.90;6.50;99083.00;;;;4961868;28;117876;-67
2023/01/15 12:02:51;;;;;;;0.97;0.30;;;6.60;99.90;6.50;99086.00;;;;4967424;28;94246;-68
2023/01/15 12:05:24;;;;;;;0.20;0.20;;;7.00;99.90;6.50;99079.00;;;;4969995;28;89125;-67
2023/01/15 12:07:54;;;;;;;0.20;0.10;;;6.70;99.90;6.50;99066.00;;;;4967099;28;89848;-66
2023/01/15 12:13:44;;;;;;;0.20;0.20;;;6.70;99.90;6.60;99076.00;;;;4985295;27;87761;-66
2023/01/15 12:17:08;;;;;;;0.10;0.10;;;6.70;99.90;6.50;99070.00;;;;4940167;27;87713;-67
2023/01/15 12:19:58;;;;;;;0.50;0.20;;;6.70;99.90;6.60;99077.00;;;;4982693;27;87909;-66
2023/01/15 12:22:36;;;;;;;0.30;0.30;;;6.80;99.90;6.60;99083.00;;;;4985027;27;89499;-66
2023/01/15 12:25:22;;;;;;;0.40;0.37;;;6.80;99.90;6.60;99077.00;;;;4974875;27;89111;-66